createdAt,value
2023-02-13T00:00:21.537Z,6.98
2023-02-13T00:02:48.158Z,6.99
2023-02-13T00:05:14.937Z,7.00
2023-02-13T00:07:41.465Z,7.01
2023-02-13T00:10:08.673Z,6.99
2023-02-13T00:12:35.551Z,6.94
2023-02-13T00:15:02.719Z,6.97
2023-02-13T00:17:29.554Z,6.94
2023-02-13T00:19:56.051Z,6.95
2023-02-13T00:22:22.612Z,6.96
2023-02-13T00:24:49.050Z,6.95
2023-02-13T00:27:15.571Z,6.95
2023-02-13T00:29:42.047Z,6.93
2023-02-13T00:32:09.273Z,6.93
2023-02-13T00:34:36.552Z,6.94
2023-02-13T00:37:03.159Z,6.90
2023-02-13T00:39:29.662Z,6.84
2023-02-13T00:41:56.118Z,6.89
2023-02-13T00:44:22.557Z,6.88
2023-02-13T00:46:49.114Z,6.89
2023-02-13T00:49:15.606Z,6.88
2023-02-13T00:51:42.067Z,6.92
2023-02-13T00:54:08.619Z,6.87
2023-02-13T00:56:35.146Z,6.90
2023-02-13T00:59:01.789Z,6.89
2023-02-13T01:01:28.516Z,6.85
2023-02-13T01:03:55.156Z,6.85
2023-02-13T01:06:21.663Z,6.88
2023-02-13T01:08:48.108Z,6.86
2023-02-13T01:11:14.576Z,6.85
2023-02-13T01:13:41.144Z,6.80
2023-02-13T01:16:07.777Z,6.81
2023-02-13T01:18:34.326Z,6.77
2023-02-13T01:21:06.684Z,6.73
2023-02-13T01:23:35.722Z,6.70
2023-02-13T01:26:05.607Z,6.74
2023-02-13T01:28:32.158Z,6.75
2023-02-13T01:30:59.237Z,6.78
2023-02-13T01:33:27.798Z,6.78
2023-02-13T01:35:54.616Z,6.81
2023-02-13T01:38:21.460Z,6.79
2023-02-13T01:40:53.356Z,6.79
2023-02-13T01:43:23.541Z,6.75
2023-02-13T01:45:56.333Z,6.65
2023-02-13T01:48:25.953Z,6.68
2023-02-13T01:50:59.402Z,6.62
2023-02-13T01:53:31.491Z,6.64
2023-02-13T01:56:08.259Z,6.67
2023-02-13T01:58:39.553Z,6.70
2023-02-13T02:01:06.809Z,6.71
2023-02-13T02:03:39.909Z,6.70
2023-02-13T02:06:11.055Z,6.69
2023-02-13T02:08:39.041Z,6.68
2023-02-13T02:11:30.648Z,6.67
2023-02-13T02:13:58.570Z,6.65
2023-02-13T02:16:25.914Z,6.65
2023-02-13T02:18:52.632Z,6.65
2023-02-13T02:21:31.216Z,6.69
2023-02-13T02:24:22.064Z,6.68
2023-02-13T02:27:13.352Z,6.68
2023-02-13T02:29:59.833Z,6.69
2023-02-13T02:32:58.678Z,6.73
2023-02-13T02:35:40.836Z,6.74
2023-02-13T02:38:26.130Z,6.69
2023-02-13T02:41:04.956Z,6.65
2023-02-13T02:43:52.232Z,6.63
2023-02-13T02:46:38.249Z,6.66
2023-02-13T02:49:29.098Z,6.67
2023-02-13T02:52:04.797Z,6.69
2023-02-13T02:54:53.357Z,6.69
2023-02-13T02:57:47.544Z,6.68
2023-02-13T03:00:38.001Z,6.72
2023-02-13T03:03:28.245Z,6.71
2023-02-13T03:06:10.637Z,6.68
2023-02-13T03:08:57.274Z,6.59
2023-02-13T03:11:42.056Z,6.58
2023-02-13T03:14:12.502Z,6.63
2023-02-13T03:16:57.949Z,6.62
2023-02-13T03:20:16.568Z,6.62
2023-02-13T03:22:50.466Z,6.58
2023-02-13T03:25:37.381Z,6.61
2023-02-13T03:28:36.246Z,6.62
2023-02-13T03:31:38.050Z,6.65
2023-02-13T03:34:15.536Z,6.67
2023-02-13T03:37:03.661Z,6.65
2023-02-13T03:39:57.787Z,6.68
2023-02-13T03:42:32.949Z,6.69
2023-02-13T03:45:22.921Z,6.65
2023-02-13T03:47:53.233Z,6.65
2023-02-13T03:50:20.026Z,6.66
2023-02-13T03:52:54.386Z,6.66
2023-02-13T03:55:42.248Z,6.67
2023-02-13T03:58:35.099Z,6.66
2023-02-13T04:01:05.145Z,6.69
2023-02-13T04:03:34.091Z,6.68
2023-02-13T04:06:12.285Z,6.71
2023-02-13T04:08:38.914Z,6.71
2023-02-13T04:11:15.063Z,6.74
2023-02-13T04:13:51.454Z,6.71
2023-02-13T04:16:23.501Z,6.68
2023-02-13T04:18:52.553Z,6.69
2023-02-13T04:21:19.068Z,6.71
2023-02-13T04:23:45.612Z,6.69
2023-02-13T04:26:19.580Z,6.73
2023-02-13T04:28:46.386Z,6.70
2023-02-13T04:31:13.088Z,6.66
2023-02-13T04:33:39.855Z,6.70
2023-02-13T04:36:06.819Z,6.70
2023-02-13T04:38:33.408Z,6.70
2023-02-13T04:40:59.996Z,6.74
2023-02-13T04:43:26.596Z,6.70
2023-02-13T04:45:53.172Z,6.75
2023-02-13T04:48:19.662Z,6.76
2023-02-13T04:50:46.184Z,6.74
2023-02-13T04:53:12.639Z,6.75
2023-02-13T04:55:39.104Z,6.76
2023-02-13T04:58:05.630Z,6.76
2023-02-13T05:00:32.154Z,6.77
2023-02-13T05:03:09.208Z,6.76
2023-02-13T05:05:36.053Z,6.77
2023-02-13T05:08:02.829Z,6.77
2023-02-13T05:10:29.809Z,6.75
2023-02-13T05:12:56.414Z,6.78
2023-02-13T05:15:23.611Z,6.80
2023-02-13T05:17:50.105Z,6.77
2023-02-13T05:20:16.821Z,6.78
2023-02-13T05:23:05.466Z,6.79
2023-02-13T05:25:33.205Z,6.80
2023-02-13T05:27:59.676Z,6.78
2023-02-13T05:30:26.238Z,6.73
2023-02-13T05:32:53.067Z,6.73
2023-02-13T05:35:19.568Z,6.70
2023-02-13T05:37:46.035Z,6.71
2023-02-13T05:40:13.569Z,6.74
2023-02-13T05:42:43.295Z,6.74
2023-02-13T05:45:10.677Z,6.75
2023-02-13T05:47:37.252Z,6.70
2023-02-13T05:50:03.905Z,6.69
2023-02-13T05:52:30.354Z,6.70
2023-02-13T05:54:56.813Z,6.67
2023-02-13T05:57:23.310Z,6.69
2023-02-13T05:59:49.759Z,6.66
2023-02-13T06:02:16.248Z,6.69
2023-02-13T06:04:42.748Z,6.62
2023-02-13T06:07:09.228Z,6.64
2023-02-13T06:09:35.859Z,6.63
2023-02-13T06:12:02.358Z,6.65
2023-02-13T06:14:28.850Z,6.62
2023-02-13T06:16:55.371Z,6.62
2023-02-13T06:19:21.922Z,6.63
2023-02-13T06:21:48.392Z,6.63
2023-02-13T06:24:14.951Z,6.65
2023-02-13T06:26:41.454Z,6.67
2023-02-13T06:29:09.286Z,6.69
2023-02-13T06:31:35.871Z,6.69
2023-02-13T06:34:02.683Z,6.70
2023-02-13T06:36:29.155Z,6.67
2023-02-13T06:38:55.652Z,6.72
2023-02-13T06:41:22.407Z,6.75
2023-02-13T06:43:48.904Z,6.75
2023-02-13T06:46:15.389Z,6.76
2023-02-13T06:48:41.863Z,6.79
2023-02-13T06:51:08.383Z,6.79
2023-02-13T06:53:34.904Z,6.77
2023-02-13T06:56:06.290Z,6.78
2023-02-13T06:58:34.006Z,6.77
2023-02-13T07:01:00.863Z,6.72
2023-02-13T07:03:27.579Z,6.75
2023-02-13T07:05:54.062Z,6.75
2023-02-13T07:08:20.599Z,6.77
2023-02-13T07:10:47.151Z,6.77
2023-02-13T07:13:13.841Z,6.77
2023-02-13T07:15:40.520Z,6.80
2023-02-13T07:18:07.334Z,6.78
2023-02-13T07:20:34.264Z,6.73
2023-02-13T07:23:02.769Z,6.76
2023-02-13T07:25:29.682Z,6.82
2023-02-13T07:28:01.356Z,6.82
2023-02-13T07:30:28.099Z,6.85
2023-02-13T07:32:58.834Z,6.87
2023-02-13T07:35:25.382Z,6.89
2023-02-13T07:37:53.544Z,6.89
2023-02-13T07:40:20.176Z,6.93
2023-02-13T07:42:46.724Z,6.97
2023-02-13T07:45:15.404Z,7.00
2023-02-13T07:47:42.644Z,7.05
2023-02-13T07:50:10.068Z,7.06
2023-02-13T07:52:38.007Z,7.09
2023-02-13T07:55:05.492Z,7.14
2023-02-13T07:57:32.016Z,7.20
2023-02-13T07:59:58.486Z,7.24
2023-02-13T08:02:24.992Z,7.28
2023-02-13T08:04:51.458Z,7.37
2023-02-13T08:07:18.516Z,7.43
2023-02-13T08:10:04.580Z,7.49
2023-02-13T08:12:32.627Z,7.53
2023-02-13T08:14:59.131Z,7.61
2023-02-13T08:17:25.672Z,7.64
2023-02-13T08:19:52.180Z,7.69
2023-02-13T08:22:18.669Z,7.75
2023-02-13T08:24:45.203Z,7.80
2023-02-13T08:27:13.956Z,7.85
2023-02-13T08:29:40.650Z,7.87
2023-02-13T08:32:07.528Z,7.91
2023-02-13T08:34:34.085Z,7.99
2023-02-13T08:37:01.867Z,8.07
2023-02-13T08:39:28.318Z,8.11
2023-02-13T08:41:54.811Z,8.16
2023-02-13T08:44:21.276Z,8.22
2023-02-13T08:46:47.710Z,8.24
2023-02-13T08:49:14.227Z,8.30
2023-02-13T08:51:40.803Z,8.38
2023-02-13T08:54:07.270Z,8.44
2023-02-13T08:56:33.824Z,8.50
2023-02-13T08:59:00.478Z,8.56
2023-02-13T09:01:27.123Z,8.60
2023-02-13T09:03:55.808Z,8.73
2023-02-13T09:06:29.702Z,8.77
2023-02-13T09:09:00.298Z,8.84
2023-02-13T09:11:27.241Z,8.87
2023-02-13T09:13:54.339Z,8.92
2023-02-13T09:16:21.440Z,9.03
2023-02-13T09:18:49.633Z,9.04
2023-02-13T09:21:17.701Z,9.06
2023-02-13T09:23:44.804Z,9.11
2023-02-13T09:26:13.706Z,9.14
2023-02-13T09:28:41.133Z,9.19
2023-02-13T09:31:12.876Z,9.25
2023-02-13T09:33:39.488Z,9.30
2023-02-13T09:36:08.182Z,9.36
2023-02-13T09:38:35.110Z,9.40
2023-02-13T09:41:10.209Z,9.47
2023-02-13T09:43:44.859Z,9.59
2023-02-13T09:46:19.095Z,9.66
2023-02-13T09:48:49.961Z,9.82
2023-02-13T09:51:19.311Z,10.00
2023-02-13T09:54:00.255Z,10.09
2023-02-13T09:56:38.965Z,10.09
2023-02-13T09:59:47.002Z,10.03
2023-02-13T10:02:43.964Z,10.18
2023-02-13T10:05:31.723Z,10.35
2023-02-13T10:07:58.156Z,10.60
2023-02-13T10:10:37.587Z,10.72
2023-02-13T10:13:46.709Z,10.68
2023-02-13T10:16:19.445Z,10.67
2023-02-13T10:19:13.413Z,10.62
2023-02-13T10:21:50.907Z,10.64
2023-02-13T10:24:33.983Z,10.70
2023-02-13T10:27:11.017Z,10.76
2023-02-13T10:30:06.250Z,10.87
2023-02-13T10:32:38.141Z,10.91
2023-02-13T10:35:18.070Z,11.00
2023-02-13T10:37:50.878Z,10.98
2023-02-13T10:40:19.112Z,10.99
2023-02-13T10:42:54.160Z,11.00
2023-02-13T10:45:58.276Z,11.06
2023-02-13T10:48:33.859Z,11.17
2023-02-13T10:51:18.142Z,11.22
2023-02-13T10:54:21.977Z,11.17
2023-02-13T10:57:06.904Z,11.17
2023-02-13T10:59:44.843Z,11.13
2023-02-13T11:02:22.767Z,11.21
2023-02-13T11:04:52.344Z,11.22
2023-02-13T11:07:21.860Z,11.20
2023-02-13T11:09:50.933Z,11.23
2023-02-13T11:12:29.775Z,11.24
2023-02-13T11:15:01.555Z,11.04
2023-02-13T11:17:46.943Z,10.83
2023-02-13T11:20:33.548Z,10.82
2023-02-13T11:23:31.142Z,11.05
2023-02-13T11:26:11.953Z,11.21
2023-02-13T11:28:55.417Z,11.43
2023-02-13T11:31:24.573Z,11.41
2023-02-13T11:33:51.584Z,11.27
2023-02-13T11:36:38.341Z,11.48
2023-02-13T11:39:17.422Z,11.57
2023-02-13T11:41:46.721Z,11.67
2023-02-13T11:44:28.430Z,11.64
2023-02-13T11:46:57.832Z,11.64
2023-02-13T11:49:50.820Z,11.76
2023-02-13T11:52:25.078Z,11.94
2023-02-13T11:55:24.675Z,11.98
2023-02-13T11:58:10.398Z,12.00
2023-02-13T12:00:40.406Z,12.11
2023-02-13T12:03:22.068Z,12.11
2023-02-13T12:06:18.546Z,12.10
2023-02-13T12:08:48.379Z,11.98
2023-02-13T12:11:23.667Z,11.92
2023-02-13T12:13:51.989Z,12.00
2023-02-13T12:16:30.992Z,12.05
2023-02-13T12:19:03.599Z,11.89
2023-02-13T12:21:56.847Z,11.93
2023-02-13T12:24:52.676Z,12.00
2023-02-13T12:27:24.841Z,12.01
2023-02-13T12:30:00.304Z,12.14
2023-02-13T12:32:42.085Z,12.23
2023-02-13T12:35:30.488Z,12.37
2023-02-13T12:38:04.095Z,12.34
2023-02-13T12:40:30.465Z,12.42
2023-02-13T12:43:15.288Z,12.33
2023-02-13T12:46:05.656Z,12.45
2023-02-13T12:48:54.095Z,12.44
2023-02-13T12:51:40.567Z,12.44
2023-02-13T12:54:50.612Z,12.51
2023-02-13T12:57:27.701Z,12.56
2023-02-13T13:00:35.202Z,12.62
2023-02-13T13:03:35.548Z,12.72
2023-02-13T13:06:37.680Z,12.72
2023-02-13T13:09:31.708Z,12.84
2023-02-13T13:12:19.668Z,12.78
2023-02-13T13:15:06.527Z,12.83
2023-02-13T13:18:21.271Z,12.92
2023-02-13T13:20:56.805Z,12.91
2023-02-13T13:23:32.110Z,12.82
2023-02-13T13:26:13.669Z,12.79
2023-02-13T13:28:47.278Z,12.84
2023-02-13T13:31:14.178Z,12.89
2023-02-13T13:33:43.796Z,12.89
2023-02-13T13:36:32.203Z,12.86
2023-02-13T13:39:17.463Z,12.94
2023-02-13T13:41:54.903Z,13.02
2023-02-13T13:44:42.478Z,13.03
2023-02-13T13:47:30.780Z,12.91
2023-02-13T13:50:01.906Z,12.87
2023-02-13T13:52:33.032Z,12.86
2023-02-13T13:55:02.483Z,12.93
2023-02-13T13:57:41.270Z,13.01
2023-02-13T14:00:13.506Z,12.94
2023-02-13T14:02:42.713Z,12.98
2023-02-13T14:05:21.381Z,12.91
2023-02-13T14:07:54.413Z,12.90
2023-02-13T14:10:20.870Z,13.01
2023-02-13T14:12:59.786Z,13.03
2023-02-13T14:15:29.269Z,13.19
2023-02-13T14:17:56.204Z,13.31
2023-02-13T14:20:56.816Z,13.45
2023-02-13T14:23:37.638Z,14.12
2023-02-13T14:26:16.242Z,14.54
2023-02-13T14:28:48.806Z,14.80
2023-02-13T14:31:23.416Z,15.19
2023-02-13T14:34:01.859Z,15.26
2023-02-13T14:36:33.348Z,15.45
2023-02-13T14:39:25.854Z,15.16
2023-02-13T14:41:55.172Z,15.04
2023-02-13T14:44:46.569Z,14.93
2023-02-13T14:47:30.328Z,14.75
2023-02-13T14:49:59.379Z,14.63
2023-02-13T14:52:32.769Z,14.53
2023-02-13T14:55:04.292Z,14.46
2023-02-13T14:57:58.097Z,14.29
2023-02-13T15:00:43.267Z,14.00
2023-02-13T15:03:37.087Z,13.72
2023-02-13T15:06:12.506Z,13.55
2023-02-13T15:08:47.109Z,13.42
2023-02-13T15:11:35.822Z,13.42
2023-02-13T15:14:30.237Z,13.32
2023-02-13T15:17:06.325Z,13.24
2023-02-13T15:19:36.964Z,13.23
2023-02-13T15:22:05.617Z,13.27
2023-02-13T15:24:46.204Z,13.43
2023-02-13T15:27:19.763Z,13.74
2023-02-13T15:30:04.214Z,13.96
2023-02-13T15:32:39.520Z,14.09
2023-02-13T15:35:31.016Z,14.04
2023-02-13T15:37:58.541Z,13.67
2023-02-13T15:40:30.551Z,13.51
2023-02-13T15:42:57.997Z,13.57
2023-02-13T15:45:27.539Z,13.40
2023-02-13T15:47:56.270Z,13.18
2023-02-13T15:50:30.834Z,13.14
2023-02-13T15:52:59.683Z,13.19
2023-02-13T15:55:30.412Z,13.14
2023-02-13T15:58:00.317Z,13.01
2023-02-13T16:00:41.031Z,12.77
2023-02-13T16:03:15.308Z,12.68
2023-02-13T16:05:41.943Z,12.69
2023-02-13T16:08:28.455Z,12.41
2023-02-13T16:11:16.234Z,12.32
2023-02-13T16:13:56.067Z,12.11
2023-02-13T16:16:24.101Z,11.92
2023-02-13T16:18:51.420Z,11.85
2023-02-13T16:21:26.413Z,11.63
2023-02-13T16:24:01.465Z,11.44
2023-02-13T16:26:28.130Z,11.31
2023-02-13T16:28:55.802Z,11.21
2023-02-13T16:31:22.762Z,11.08
2023-02-13T16:33:49.509Z,10.93
2023-02-13T16:36:15.954Z,10.82
2023-02-13T16:38:47.296Z,10.75
2023-02-13T16:41:19.656Z,10.65
2023-02-13T16:43:55.370Z,10.57
2023-02-13T16:46:27.968Z,10.45
2023-02-13T16:48:57.441Z,10.36
2023-02-13T16:51:30.146Z,10.29
2023-02-13T16:54:02.054Z,10.22
2023-02-13T16:56:36.311Z,10.14
2023-02-13T16:59:18.840Z,10.07
2023-02-13T17:01:45.374Z,9.93
2023-02-13T17:04:21.364Z,9.77
2023-02-13T17:06:47.984Z,9.65
2023-02-13T17:09:14.519Z,9.55
2023-02-13T17:11:41.065Z,9.36
2023-02-13T17:14:07.700Z,9.15
2023-02-13T17:16:34.452Z,9.08
2023-02-13T17:19:01.023Z,9.04
2023-02-13T17:21:27.556Z,8.91
2023-02-13T17:23:54.051Z,8.81
2023-02-13T17:26:20.589Z,8.72
2023-02-13T17:28:47.077Z,8.62
2023-02-13T17:31:14.217Z,8.52
2023-02-13T17:33:41.169Z,8.38
2023-02-13T17:36:09.628Z,8.24
2023-02-13T17:38:36.119Z,8.12
2023-02-13T17:41:02.629Z,7.99
2023-02-13T17:43:30.061Z,7.95
2023-02-13T17:45:57.160Z,7.81
2023-02-13T17:48:24.472Z,7.69
2023-02-13T17:50:51.357Z,7.56
2023-02-13T17:53:24.744Z,7.53
2023-02-13T17:55:51.784Z,7.47
2023-02-13T17:58:18.503Z,7.39
2023-02-13T18:00:44.954Z,7.27
2023-02-13T18:03:12.590Z,7.25
2023-02-13T18:05:40.211Z,7.19
2023-02-13T18:08:06.871Z,7.12
2023-02-13T18:10:35.522Z,7.07
2023-02-13T18:13:06.184Z,7.02
2023-02-13T18:15:41.948Z,6.91
2023-02-13T18:18:08.768Z,6.83
2023-02-13T18:20:35.526Z,6.70
2023-02-13T18:23:02.066Z,6.66
2023-02-13T18:25:29.329Z,6.60
2023-02-13T18:27:55.919Z,6.47
2023-02-13T18:30:22.543Z,6.32
2023-02-13T18:32:54.759Z,6.22
2023-02-13T18:35:23.010Z,6.23
2023-02-13T18:37:49.745Z,6.21
2023-02-13T18:40:17.594Z,6.17
2023-02-13T18:42:44.348Z,6.13
2023-02-13T18:45:12.122Z,6.12
2023-02-13T18:47:38.644Z,6.06
2023-02-13T18:50:05.697Z,5.96
2023-02-13T18:52:32.213Z,5.90
2023-02-13T18:54:58.712Z,5.81
2023-02-13T18:57:25.248Z,5.78
2023-02-13T18:59:51.750Z,5.79
2023-02-13T19:02:18.307Z,5.75
2023-02-13T19:04:44.825Z,5.68
2023-02-13T19:07:11.395Z,5.60
2023-02-13T19:09:40.328Z,5.54
2023-02-13T19:12:08.187Z,5.50
2023-02-13T19:14:35.028Z,5.48
2023-02-13T19:17:01.583Z,5.41
2023-02-13T19:19:28.169Z,5.38
2023-02-13T19:21:54.736Z,5.27
2023-02-13T19:24:21.318Z,5.21
2023-02-13T19:26:47.806Z,5.14
2023-02-13T19:29:14.281Z,5.10
2023-02-13T19:31:41.528Z,5.10
2023-02-13T19:34:08.283Z,5.08
2023-02-13T19:36:34.921Z,5.06
2023-02-13T19:39:03.985Z,5.01
2023-02-13T19:41:30.848Z,5.01
2023-02-13T19:43:57.501Z,4.88
2023-02-13T19:46:27.005Z,4.77
2023-02-13T19:48:54.200Z,4.69
2023-02-13T19:51:24.168Z,4.62
2023-02-13T19:53:59.398Z,4.50
2023-02-13T19:56:27.425Z,4.40
2023-02-13T19:58:54.383Z,4.35
2023-02-13T20:01:23.586Z,4.27
2023-02-13T20:03:50.603Z,4.27
2023-02-13T20:06:23.032Z,4.28
2023-02-13T20:08:49.915Z,4.28
2023-02-13T20:11:17.690Z,4.21
2023-02-13T20:13:44.152Z,4.19
2023-02-13T20:16:13.637Z,4.10
2023-02-13T20:18:41.340Z,4.02
2023-02-13T20:21:13.021Z,3.97
2023-02-13T20:23:40.389Z,3.90
2023-02-13T20:26:13.882Z,3.87
2023-02-13T20:28:41.754Z,3.90
2023-02-13T20:31:20.289Z,3.87
2023-02-13T20:33:48.327Z,3.86
2023-02-13T20:36:20.865Z,3.77
2023-02-13T20:38:48.225Z,3.70
2023-02-13T20:41:20.407Z,3.65
2023-02-13T20:43:47.170Z,3.62
2023-02-13T20:46:16.203Z,3.52
2023-02-13T20:48:44.976Z,3.46
2023-02-13T20:51:13.133Z,3.43
2023-02-13T20:53:40.716Z,3.39
2023-02-13T20:56:12.146Z,3.36
2023-02-13T20:58:39.703Z,3.33
2023-02-13T21:01:18.941Z,3.27
2023-02-13T21:03:49.916Z,3.28
2023-02-13T21:06:16.492Z,3.24
2023-02-13T21:08:43.824Z,3.23
2023-02-13T21:11:10.347Z,3.19
2023-02-13T21:13:37.009Z,3.16
2023-02-13T21:16:14.001Z,3.15
2023-02-13T21:18:41.759Z,3.11
2023-02-13T21:21:09.961Z,3.07
2023-02-13T21:23:37.400Z,3.02
2023-02-13T21:26:06.701Z,3.02
2023-02-13T21:28:33.494Z,3.00
2023-02-13T21:31:08.914Z,2.98
2023-02-13T21:33:35.885Z,3.00
2023-02-13T21:36:04.485Z,2.96
2023-02-13T21:38:30.999Z,2.94
2023-02-13T21:41:08.769Z,2.98
2023-02-13T21:43:37.703Z,2.94
2023-02-13T21:46:09.658Z,2.93
2023-02-13T21:48:37.536Z,2.86
2023-02-13T21:51:12.537Z,2.80
2023-02-13T21:53:39.744Z,2.74
2023-02-13T21:56:10.561Z,2.68
2023-02-13T21:58:39.176Z,2.67
2023-02-13T22:01:20.530Z,2.64
2023-02-13T22:03:52.124Z,2.60
2023-02-13T22:06:19.987Z,2.56
2023-02-13T22:08:46.716Z,2.48
2023-02-13T22:11:13.356Z,2.46
2023-02-13T22:13:39.835Z,2.43
2023-02-13T22:16:14.892Z,2.40
2023-02-13T22:18:43.700Z,2.35
2023-02-13T22:21:16.201Z,2.32
2023-02-13T22:23:44.534Z,2.36
2023-02-13T22:26:15.715Z,2.32
2023-02-13T22:28:42.684Z,2.31
2023-02-13T22:31:10.132Z,2.32
2023-02-13T22:33:36.753Z,2.31
2023-02-13T22:36:03.980Z,2.31
2023-02-13T22:38:35.616Z,2.26
2023-02-13T22:41:22.752Z,2.24
2023-02-13T22:43:49.692Z,2.18
2023-02-13T22:46:22.764Z,2.17
2023-02-13T22:48:53.868Z,2.17
2023-02-13T22:51:22.872Z,2.11
2023-02-13T22:53:51.925Z,2.15
2023-02-13T22:56:18.408Z,2.11
2023-02-13T22:58:44.874Z,2.11
2023-02-13T23:01:13.464Z,2.10
2023-02-13T23:03:40.455Z,2.05
2023-02-13T23:06:09.106Z,2.03
2023-02-13T23:08:36.426Z,1.96
2023-02-13T23:11:32.356Z,1.94
2023-02-13T23:13:59.188Z,1.89
2023-02-13T23:16:26.324Z,1.86
2023-02-13T23:18:57.310Z,1.82
2023-02-13T23:21:25.404Z,1.83
2023-02-13T23:23:52.146Z,1.80
2023-02-13T23:26:19.133Z,1.78
2023-02-13T23:28:45.730Z,1.72
2023-02-13T23:31:12.311Z,1.65
2023-02-13T23:33:38.796Z,1.66
2023-02-13T23:36:05.716Z,1.65
2023-02-13T23:38:32.212Z,1.63
2023-02-13T23:41:06.561Z,1.61
2023-02-13T23:43:33.044Z,1.57
2023-02-13T23:45:59.554Z,1.57
2023-02-13T23:48:26.055Z,1.54
2023-02-13T23:50:53.189Z,1.53
2023-02-13T23:53:19.645Z,1.46
2023-02-13T23:55:46.332Z,1.44
2023-02-13T23:58:12.803Z,1.43
